sensor_id;sensor_type;location;lat;lon;timestamp;pressure;altitude;pressure_sealevel;temperature;humidity
49843;BME280;55559;48.898;9.184;2022-07-18T00:01:42;99140.84;;;17.27;56.62
49843;BME280;55559;48.898;9.184;2022-07-18T00:04:10;99124.47;;;17.04;57.20
49843;BME280;55559;48.898;9.184;2022-07-18T00:06:36;99118.72;;;16.99;57.43
49843;BME280;55559;48.898;9.184;2022-07-18T00:09:04;99132.41;;;17.14;58.14
49843;BME280;55559;48.898;9.184;2022-07-18T00:11:31;99131.41;;;17.15;59.51
49843;BME280;55559;48.898;9.184;2022-07-18T00:13:58;99119.72;;;16.90;59.57
49843;BME280;55559;48.898;9.184;2022-07-18T00:16:25;99105.53;;;16.80;59.58
49843;BME280;55559;48.898;9.184;2022-07-18T00:18:51;99138.53;;;16.98;59.83
49843;BME280;55559;48.898;9.184;2022-07-18T00:21:21;99133.47;;;16.87;58.50
49843;BME280;55559;48.898;9.184;2022-07-18T00:23:48;99152.81;;;16.99;58.78
49843;BME280;55559;48.898;9.184;2022-07-18T00:26:15;99145.03;;;16.87;60.72
49843;BME280;55559;48.898;9.184;2022-07-18T00:28:41;99140.44;;;16.80;60.71
49843;BME280;55559;48.898;9.184;2022-07-18T00:31:08;99155.38;;;16.82;60.60
49843;BME280;55559;48.898;9.184;2022-07-18T00:33:35;99141.03;;;16.65;61.41
49843;BME280;55559;48.898;9.184;2022-07-18T00:36:02;99158.50;;;16.69;62.08
49843;BME280;55559;48.898;9.184;2022-07-18T00:38:30;99143.66;;;16.57;62.79
49843;BME280;55559;48.898;9.184;2022-07-18T00:40:57;99132.50;;;16.44;63.06
49843;BME280;55559;48.898;9.184;2022-07-18T00:43:24;99132.97;;;16.39;62.81
49843;BME280;55559;48.898;9.184;2022-07-18T00:45:51;99142.56;;;16.42;63.49
49843;BME280;55559;48.898;9.184;2022-07-18T00:48:18;99150.91;;;16.39;64.43
49843;BME280;55559;48.898;9.184;2022-07-18T00:50:46;99129.69;;;16.27;64.52
49843;BME280;55559;48.898;9.184;2022-07-18T00:53:14;99119.38;;;16.14;64.69
49843;BME280;55559;48.898;9.184;2022-07-18T00:55:46;99142.28;;;16.27;64.73
49843;BME280;55559;48.898;9.184;2022-07-18T00:58:13;99143.59;;;16.23;65.00
49843;BME280;55559;48.898;9.184;2022-07-18T01:00:41;99135.03;;;16.19;65.62
49843;BME280;55559;48.898;9.184;2022-07-18T01:03:26;99139.84;;;16.15;65.04
49843;BME280;55559;48.898;9.184;2022-07-18T01:05:53;99136.16;;;16.16;65.19
49843;BME280;55559;48.898;9.184;2022-07-18T01:08:20;99146.38;;;16.13;65.50
49843;BME280;55559;48.898;9.184;2022-07-18T01:10:48;99145.53;;;16.12;65.57
49843;BME280;55559;48.898;9.184;2022-07-18T01:13:17;99136.25;;;16.07;67.52
49843;BME280;55559;48.898;9.184;2022-07-18T01:15:44;99115.22;;;15.94;67.78
49843;BME280;55559;48.898;9.184;2022-07-18T01:18:10;99132.13;;;15.94;67.68
49843;BME280;55559;48.898;9.184;2022-07-18T01:20:38;99103.94;;;15.72;69.35
49843;BME280;55559;48.898;9.184;2022-07-18T01:23:05;99150.53;;;15.89;69.86
49843;BME280;55559;48.898;9.184;2022-07-18T01:25:32;99141.56;;;15.80;70.09
49843;BME280;55559;48.898;9.184;2022-07-18T01:27:59;99150.91;;;15.76;70.20
49843;BME280;55559;48.898;9.184;2022-07-18T01:30:26;99139.91;;;15.70;71.07
49843;BME280;55559;48.898;9.184;2022-07-18T01:32:57;99128.72;;;15.56;72.03
49843;BME280;55559;48.898;9.184;2022-07-18T01:35:26;99132.94;;;15.59;72.56
49843;BME280;55559;48.898;9.184;2022-07-18T01:37:56;99121.22;;;15.42;72.91
49843;BME280;55559;48.898;9.184;2022-07-18T01:40:24;99138.22;;;15.51;73.77
49843;BME280;55559;48.898;9.184;2022-07-18T01:42:51;99140.66;;;15.44;73.67
49843;BME280;55559;48.898;9.184;2022-07-18T01:45:18;99124.09;;;15.31;74.24
49843;BME280;55559;48.898;9.184;2022-07-18T01:47:45;99144.13;;;15.36;74.74
49843;BME280;55559;48.898;9.184;2022-07-18T01:50:13;99132.84;;;15.33;75.47
49843;BME280;55559;48.898;9.184;2022-07-18T01:52:40;99144.41;;;15.33;75.44
49843;BME280;55559;48.898;9.184;2022-07-18T01:55:09;99138.66;;;15.28;76.27
49843;BME280;55559;48.898;9.184;2022-07-18T01:57:37;99134.59;;;15.24;76.82
49843;BME280;55559;48.898;9.184;2022-07-18T02:00:06;99133.13;;;15.12;76.48
49843;BME280;55559;48.898;9.184;2022-07-18T02:02:33;99128.19;;;15.07;76.76
49843;BME280;55559;48.898;9.184;2022-07-18T02:05:00;99143.38;;;15.16;77.40
49843;BME280;55559;48.898;9.184;2022-07-18T02:07:29;99131.06;;;14.96;78.30
49843;BME280;55559;48.898;9.184;2022-07-18T02:09:57;99149.31;;;15.10;77.75
49843;BME280;55559;48.898;9.184;2022-07-18T02:12:25;99129.09;;;14.98;76.90
49843;BME280;55559;48.898;9.184;2022-07-18T02:14:52;99156.69;;;15.08;78.28
49843;BME280;55559;48.898;9.184;2022-07-18T02:17:19;99151.91;;;15.02;78.43
49843;BME280;55559;48.898;9.184;2022-07-18T02:19:46;99151.34;;;14.98;78.81
49843;BME280;55559;48.898;9.184;2022-07-18T02:22:13;99139.00;;;14.87;79.06
49843;BME280;55559;48.898;9.184;2022-07-18T02:24:40;99148.56;;;14.90;79.95
49843;BME280;55559;48.898;9.184;2022-07-18T02:27:07;99145.25;;;14.78;80.40
49843;BME280;55559;48.898;9.184;2022-07-18T02:29:36;99136.50;;;14.76;80.00
49843;BME280;55559;48.898;9.184;2022-07-18T02:32:03;99135.84;;;14.64;80.66
49843;BME280;55559;48.898;9.184;2022-07-18T02:34:30;99113.88;;;14.51;81.73
49843;BME280;55559;48.898;9.184;2022-07-18T02:36:57;99152.59;;;14.66;82.19
49843;BME280;55559;48.898;9.184;2022-07-18T02:39:24;99149.38;;;14.63;82.52
49843;BME280;55559;48.898;9.184;2022-07-18T02:41:52;99153.34;;;14.59;83.10
49843;BME280;55559;48.898;9.184;2022-07-18T02:44:19;99149.38;;;14.53;83.81
49843;BME280;55559;48.898;9.184;2022-07-18T02:46:47;99137.72;;;14.44;84.54
49843;BME280;55559;48.898;9.184;2022-07-18T02:49:14;99137.44;;;14.38;85.58
49843;BME280;55559;48.898;9.184;2022-07-18T02:51:54;99127.44;;;14.30;86.47
49843;BME280;55559;48.898;9.184;2022-07-18T02:54:22;99155.06;;;14.40;87.59
49843;BME280;55559;48.898;9.184;2022-07-18T02:56:49;99137.16;;;14.31;89.23
49843;BME280;55559;48.898;9.184;2022-07-18T02:59:16;99149.72;;;14.30;91.58
49843;BME280;55559;48.898;9.184;2022-07-18T03:01:43;99149.31;;;14.25;93.22
49843;BME280;55559;48.898;9.184;2022-07-18T03:04:11;99112.72;;;14.06;94.03
49843;BME280;55559;48.898;9.184;2022-07-18T03:06:38;99139.03;;;14.11;96.99
49843;BME280;55559;48.898;9.184;2022-07-18T03:09:04;99145.53;;;14.08;99.00
49843;BME280;55559;48.898;9.184;2022-07-18T03:11:31;99130.31;;;13.99;99.91
49843;BME280;55559;48.898;9.184;2022-07-18T03:13:58;99126.13;;;13.97;100.00
49843;BME280;55559;48.898;9.184;2022-07-18T03:16:25;99150.56;;;14.11;100.00
49843;BME280;55559;48.898;9.184;2022-07-18T03:18:52;99154.38;;;14.09;100.00
49843;BME280;55559;48.898;9.184;2022-07-18T03:21:20;99146.22;;;14.01;100.00
49843;BME280;55559;48.898;9.184;2022-07-18T03:23:47;99132.84;;;13.91;100.00
49843;BME280;55559;48.898;9.184;2022-07-18T03:26:14;99162.00;;;14.04;100.00
49843;BME280;55559;48.898;9.184;2022-07-18T03:28:41;99150.19;;;13.97;100.00
49843;BME280;55559;48.898;9.184;2022-07-18T03:31:08;99158.06;;;13.98;100.00
49843;BME280;55559;48.898;9.184;2022-07-18T03:33:34;99157.06;;;13.99;100.00
49843;BME280;55559;48.898;9.184;2022-07-18T03:36:01;99160.72;;;13.98;100.00
49843;BME280;55559;48.898;9.184;2022-07-18T03:38:29;99119.22;;;13.74;100.00
49843;BME280;55559;48.898;9.184;2022-07-18T03:40:56;99154.09;;;13.92;100.00
49843;BME280;55559;48.898;9.184;2022-07-18T03:43:23;99126.53;;;13.72;100.00
49843;BME280;55559;48.898;9.184;2022-07-18T03:45:49;99135.69;;;13.80;100.00
49843;BME280;55559;48.898;9.184;2022-07-18T03:48:16;99148.47;;;13.86;100.00
49843;BME280;55559;48.898;9.184;2022-07-18T03:50:43;99153.41;;;13.90;100.00
49843;BME280;55559;48.898;9.184;2022-07-18T03:53:10;99139.34;;;13.79;100.00
49843;BME280;55559;48.898;9.184;2022-07-18T03:55:38;99157.66;;;13.93;100.00
49843;BME280;55559;48.898;9.184;2022-07-18T03:58:04;99151.16;;;13.95;100.00
49843;BME280;55559;48.898;9.184;2022-07-18T04:00:31;99147.59;;;14.14;100.00
49843;BME280;55559;48.898;9.184;2022-07-18T04:02:59;99122.72;;;14.14;100.00
49843;BME280;55559;48.898;9.184;2022-07-18T04:05:26;99136.72;;;14.45;96.97
49843;BME280;55559;48.898;9.184;2022-07-18T04:07:54;99116.19;;;14.36;94.13
49843;BME280;55559;48.898;9.184;2022-07-18T04:10:21;99148.66;;;14.71;94.37
49843;BME280;55559;48.898;9.184;2022-07-18T04:12:51;99141.31;;;14.73;93.03
49843;BME280;55559;48.898;9.184;2022-07-18T04:15:19;99149.75;;;15.05;90.35
49843;BME280;55559;48.898;9.184;2022-07-18T04:17:46;99150.13;;;15.20;88.50
49843;BME280;55559;48.898;9.184;2022-07-18T04:20:17;99123.22;;;15.12;86.77
49843;BME280;55559;48.898;9.184;2022-07-18T04:22:49;99142.88;;;15.31;86.16
49843;BME280;55559;48.898;9.184;2022-07-18T04:25:17;99152.47;;;15.51;83.75
49843;BME280;55559;48.898;9.184;2022-07-18T04:27:50;99134.09;;;15.56;81.62
49843;BME280;55559;48.898;9.184;2022-07-18T04:30:19;99120.31;;;15.51;81.23
49843;BME280;55559;48.898;9.184;2022-07-18T04:32:46;99151.13;;;15.83;77.65
49843;BME280;55559;48.898;9.184;2022-07-18T04:35:13;99148.22;;;15.94;76.59
49843;BME280;55559;48.898;9.184;2022-07-18T04:37:40;99140.50;;;15.91;76.19
49843;BME280;55559;48.898;9.184;2022-07-18T04:40:09;99147.69;;;15.91;77.16
49843;BME280;55559;48.898;9.184;2022-07-18T04:42:36;99103.78;;;15.74;75.79
49843;BME280;55559;48.898;9.184;2022-07-18T04:45:06;99138.78;;;16.08;74.42
49843;BME280;55559;48.898;9.184;2022-07-18T04:47:33;99142.22;;;16.18;75.93
49843;BME280;55559;48.898;9.184;2022-07-18T04:50:00;99136.22;;;16.25;73.21
49843;BME280;55559;48.898;9.184;2022-07-18T04:52:37;99136.69;;;16.20;72.85
49843;BME280;55559;48.898;9.184;2022-07-18T04:55:06;99151.97;;;16.46;72.91
49843;BME280;55559;48.898;9.184;2022-07-18T04:57:33;99149.13;;;16.47;74.62
49843;BME280;55559;48.898;9.184;2022-07-18T05:00:01;99125.78;;;16.40;73.33
49843;BME280;55559;48.898;9.184;2022-07-18T05:02:29;99148.19;;;16.57;73.72
49843;BME280;55559;48.898;9.184;2022-07-18T05:04:56;99127.28;;;16.68;73.33
49843;BME280;55559;48.898;9.184;2022-07-18T05:07:23;99141.06;;;16.73;73.28
49843;BME280;55559;48.898;9.184;2022-07-18T05:09:50;99111.66;;;16.64;73.59
49843;BME280;55559;48.898;9.184;2022-07-18T05:12:17;99144.56;;;16.92;72.55
49843;BME280;55559;48.898;9.184;2022-07-18T05:14:49;99147.28;;;17.00;72.58
49843;BME280;55559;48.898;9.184;2022-07-18T05:17:16;99126.38;;;16.86;72.64
49843;BME280;55559;48.898;9.184;2022-07-18T05:19:44;99142.94;;;17.07;72.07
49843;BME280;55559;48.898;9.184;2022-07-18T05:22:11;99146.31;;;17.09;71.68
49843;BME280;55559;48.898;9.184;2022-07-18T05:24:38;99126.13;;;16.97;72.08
49843;BME280;55559;48.898;9.184;2022-07-18T05:27:05;99123.00;;;17.10;71.27
49843;BME280;55559;48.898;9.184;2022-07-18T05:29:31;99109.09;;;17.31;70.18
49843;BME280;55559;48.898;9.184;2022-07-18T05:31:59;99108.44;;;17.37;70.01
49843;BME280;55559;48.898;9.184;2022-07-18T05:34:26;99123.56;;;17.46;69.73
49843;BME280;55559;48.898;9.184;2022-07-18T05:36:54;99137.56;;;17.58;69.91
49843;BME280;55559;48.898;9.184;2022-07-18T05:39:21;99141.41;;;17.64;69.51
49843;BME280;55559;48.898;9.184;2022-07-18T05:41:48;99102.75;;;17.57;68.78
49843;BME280;55559;48.898;9.184;2022-07-18T05:44:14;99129.50;;;17.75;68.89
49843;BME280;55559;48.898;9.184;2022-07-18T05:46:41;99143.94;;;17.65;69.77
49843;BME280;55559;48.898;9.184;2022-07-18T05:49:08;99121.94;;;17.70;67.78
49843;BME280;55559;48.898;9.184;2022-07-18T05:51:35;99150.06;;;17.92;67.47
49843;BME280;55559;48.898;9.184;2022-07-18T05:54:03;99125.34;;;17.89;66.85
49843;BME280;55559;48.898;9.184;2022-07-18T05:56:30;99154.47;;;18.01;67.21
49843;BME280;55559;48.898;9.184;2022-07-18T05:58:57;99154.63;;;18.16;65.81
49843;BME280;55559;48.898;9.184;2022-07-18T06:01:24;99146.03;;;18.21;64.60
49843;BME280;55559;48.898;9.184;2022-07-18T06:03:50;99143.66;;;18.26;64.48
49843;BME280;55559;48.898;9.184;2022-07-18T06:06:17;99145.84;;;18.39;63.94
49843;BME280;55559;48.898;9.184;2022-07-18T06:08:44;99128.53;;;18.33;63.39
49843;BME280;55559;48.898;9.184;2022-07-18T06:11:12;99131.16;;;18.83;61.85
49843;BME280;55559;48.898;9.184;2022-07-18T06:13:40;99143.84;;;21.20;51.89
49843;BME280;55559;48.898;9.184;2022-07-18T06:16:08;99107.94;;;22.06;47.08
49843;BME280;55559;48.898;9.184;2022-07-18T06:18:35;99139.56;;;23.12;44.20
49843;BME280;55559;48.898;9.184;2022-07-18T06:21:32;99149.50;;;23.04;42.84
49843;BME280;55559;48.898;9.184;2022-07-18T06:24:05;99132.41;;;23.59;41.00
49843;BME280;55559;48.898;9.184;2022-07-18T06:26:36;99147.03;;;23.51;41.07
49843;BME280;55559;48.898;9.184;2022-07-18T06:29:16;99142.97;;;24.82;38.06
49843;BME280;55559;48.898;9.184;2022-07-18T06:31:46;99152.84;;;24.70;37.83
49843;BME280;55559;48.898;9.184;2022-07-18T06:34:15;99102.88;;;24.31;38.58
49843;BME280;55559;48.898;9.184;2022-07-18T06:36:46;99090.31;;;25.22;37.25
49843;BME280;55559;48.898;9.184;2022-07-18T06:39:13;99099.84;;;24.93;37.91
49843;BME280;55559;48.898;9.184;2022-07-18T06:41:45;99113.91;;;24.83;38.20
49843;BME280;55559;48.898;9.184;2022-07-18T06:44:12;99146.44;;;25.23;37.84
49843;BME280;55559;48.898;9.184;2022-07-18T06:46:40;99101.66;;;25.12;36.97
49843;BME280;55559;48.898;9.184;2022-07-18T06:49:07;99141.13;;;24.43;37.64
49843;BME280;55559;48.898;9.184;2022-07-18T06:51:34;99128.16;;;24.65;36.85
49843;BME280;55559;48.898;9.184;2022-07-18T06:54:03;99141.28;;;24.95;36.90
49843;BME280;55559;48.898;9.184;2022-07-18T06:56:32;99121.28;;;24.62;37.34
49843;BME280;55559;48.898;9.184;2022-07-18T07:06:50;99134.66;;;25.36;36.20
49843;BME280;55559;48.898;9.184;2022-07-18T07:13:14;99113.50;;;24.79;36.60
49843;BME280;55559;48.898;9.184;2022-07-18T07:15:53;99089.66;;;25.33;35.93
49843;BME280;55559;48.898;9.184;2022-07-18T07:18:38;99073.28;;;24.88;36.57
49843;BME280;55559;48.898;9.184;2022-07-18T07:29:03;99072.25;;;24.82;35.90
49843;BME280;55559;48.898;9.184;2022-07-18T07:51:47;99107.69;;;25.21;34.26
49843;BME280;55559;48.898;9.184;2022-07-18T07:57:13;99117.66;;;24.88;36.93
49843;BME280;55559;48.898;9.184;2022-07-18T08:32:11;99109.19;;;25.94;33.37
49843;BME280;55559;48.898;9.184;2022-07-18T09:05:19;99058.06;;;26.83;30.42
49843;BME280;55559;48.898;9.184;2022-07-18T09:07:57;99102.97;;;27.55;30.44
49843;BME280;55559;48.898;9.184;2022-07-18T09:10:50;99064.03;;;27.29;30.33
49843;BME280;55559;48.898;9.184;2022-07-18T09:13:43;99057.84;;;27.64;28.35
49843;BME280;55559;48.898;9.184;2022-07-18T09:16:23;99081.63;;;27.75;28.46
49843;BME280;55559;48.898;9.184;2022-07-18T09:59:39;99090.81;;;29.35;25.25
49843;BME280;55559;48.898;9.184;2022-07-18T10:02:06;99089.41;;;29.08;24.97
49843;BME280;55559;48.898;9.184;2022-07-18T10:04:34;99090.25;;;29.49;24.41
49843;BME280;55559;48.898;9.184;2022-07-18T10:07:02;99080.44;;;29.37;25.26
49843;BME280;55559;48.898;9.184;2022-07-18T10:09:30;99086.47;;;30.13;23.35
49843;BME280;55559;48.898;9.184;2022-07-18T10:12:00;99079.41;;;30.00;23.23
49843;BME280;55559;48.898;9.184;2022-07-18T10:14:28;99077.84;;;30.38;22.80
49843;BME280;55559;48.898;9.184;2022-07-18T10:16:56;99081.91;;;30.36;23.03
49843;BME280;55559;48.898;9.184;2022-07-18T10:19:24;99086.50;;;30.69;22.07
49843;BME280;55559;48.898;9.184;2022-07-18T10:21:53;99083.06;;;30.23;21.73
49843;BME280;55559;48.898;9.184;2022-07-18T10:24:23;99074.00;;;29.31;23.65
49843;BME280;55559;48.898;9.184;2022-07-18T10:27:15;99084.88;;;30.34;21.95
49843;BME280;55559;48.898;9.184;2022-07-18T10:30:11;99079.16;;;30.53;22.13
49843;BME280;55559;48.898;9.184;2022-07-18T10:32:40;99085.38;;;30.87;21.44
49843;BME280;55559;48.898;9.184;2022-07-18T10:35:08;99078.56;;;30.51;20.95
49843;BME280;55559;48.898;9.184;2022-07-18T10:37:37;99075.03;;;31.16;20.81
49843;BME280;55559;48.898;9.184;2022-07-18T10:40:25;99081.53;;;31.05;20.78
49843;BME280;55559;48.898;9.184;2022-07-18T10:43:33;99076.03;;;31.05;21.05
49843;BME280;55559;48.898;9.184;2022-07-18T10:46:03;99079.78;;;31.21;20.92
49843;BME280;55559;48.898;9.184;2022-07-18T10:48:50;99076.97;;;31.16;21.21
49843;BME280;55559;48.898;9.184;2022-07-18T10:51:19;99074.09;;;31.28;21.39
49843;BME280;55559;48.898;9.184;2022-07-18T10:54:10;99069.56;;;31.66;21.63
49843;BME280;55559;48.898;9.184;2022-07-18T10:57:07;99069.47;;;31.56;21.27
49843;BME280;55559;48.898;9.184;2022-07-18T10:59:37;99059.91;;;31.96;21.19
49843;BME280;55559;48.898;9.184;2022-07-18T11:02:06;99063.78;;;31.95;21.34
49843;BME280;55559;48.898;9.184;2022-07-18T11:04:40;99072.47;;;32.14;20.74
49843;BME280;55559;48.898;9.184;2022-07-18T11:07:12;99057.03;;;31.80;20.36
49843;BME280;55559;48.898;9.184;2022-07-18T11:09:43;99053.06;;;31.39;21.33
49843;BME280;55559;48.898;9.184;2022-07-18T11:12:24;99047.78;;;31.10;20.71
49843;BME280;55559;48.898;9.184;2022-07-18T11:15:14;99051.84;;;31.84;19.76
49843;BME280;55559;48.898;9.184;2022-07-18T11:17:55;99036.56;;;32.31;19.96
49843;BME280;55559;48.898;9.184;2022-07-18T11:20:33;99048.06;;;32.22;20.50
49843;BME280;55559;48.898;9.184;2022-07-18T11:23:03;99046.44;;;31.94;20.05
49843;BME280;55559;48.898;9.184;2022-07-18T11:25:31;99043.13;;;31.92;20.62
49843;BME280;55559;48.898;9.184;2022-07-18T11:27:58;99049.34;;;32.52;19.32
49843;BME280;55559;48.898;9.184;2022-07-18T11:30:27;99041.16;;;32.20;20.33
49843;BME280;55559;48.898;9.184;2022-07-18T11:32:55;99041.63;;;32.06;20.06
49843;BME280;55559;48.898;9.184;2022-07-18T11:35:23;99031.38;;;32.39;19.70
49843;BME280;55559;48.898;9.184;2022-07-18T11:37:52;99030.75;;;32.75;18.94
49843;BME280;55559;48.898;9.184;2022-07-18T11:40:21;99030.91;;;32.53;19.73
49843;BME280;55559;48.898;9.184;2022-07-18T11:42:49;99035.06;;;32.60;19.08
49843;BME280;55559;48.898;9.184;2022-07-18T11:45:16;99029.19;;;32.89;18.77
49843;BME280;55559;48.898;9.184;2022-07-18T11:47:51;99026.28;;;33.32;18.92
49843;BME280;55559;48.898;9.184;2022-07-18T11:50:26;99024.81;;;33.04;18.37
49843;BME280;55559;48.898;9.184;2022-07-18T11:53:01;99016.41;;;32.68;19.62
49843;BME280;55559;48.898;9.184;2022-07-18T11:55:35;99015.16;;;32.96;19.48
49843;BME280;55559;48.898;9.184;2022-07-18T11:58:07;99002.03;;;32.60;19.49
49843;BME280;55559;48.898;9.184;2022-07-18T12:00:35;99016.47;;;32.78;19.05
49843;BME280;55559;48.898;9.184;2022-07-18T12:03:12;99004.59;;;32.30;19.03
49843;BME280;55559;48.898;9.184;2022-07-18T12:05:41;99016.50;;;31.98;19.44
49843;BME280;55559;48.898;9.184;2022-07-18T12:08:28;99001.81;;;32.67;18.97
49843;BME280;55559;48.898;9.184;2022-07-18T12:11:04;99009.00;;;32.25;18.54
49843;BME280;55559;48.898;9.184;2022-07-18T12:13:49;99005.25;;;33.00;18.63
49843;BME280;55559;48.898;9.184;2022-07-18T12:16:32;98997.50;;;32.92;18.65
49843;BME280;55559;48.898;9.184;2022-07-18T12:19:04;99004.91;;;32.81;19.24
49843;BME280;55559;48.898;9.184;2022-07-18T12:21:41;98993.16;;;33.06;18.40
49843;BME280;55559;48.898;9.184;2022-07-18T12:24:34;98988.53;;;33.32;18.45
49843;BME280;55559;48.898;9.184;2022-07-18T12:27:10;98988.03;;;33.87;16.99
49843;BME280;55559;48.898;9.184;2022-07-18T12:30:09;98984.97;;;33.63;17.95
49843;BME280;55559;48.898;9.184;2022-07-18T12:32:43;98985.97;;;33.10;18.35
49843;BME280;55559;48.898;9.184;2022-07-18T12:35:14;98985.75;;;33.17;17.65
49843;BME280;55559;48.898;9.184;2022-07-18T12:37:51;98993.22;;;33.52;17.61
49843;BME280;55559;48.898;9.184;2022-07-18T12:40:20;98984.72;;;33.69;17.24
49843;BME280;55559;48.898;9.184;2022-07-18T12:42:48;98981.97;;;33.69;17.48
49843;BME280;55559;48.898;9.184;2022-07-18T12:45:16;98982.53;;;33.77;17.07
49843;BME280;55559;48.898;9.184;2022-07-18T12:47:43;98977.53;;;33.94;16.79
49843;BME280;55559;48.898;9.184;2022-07-18T12:50:12;98984.66;;;34.31;16.75
49843;BME280;55559;48.898;9.184;2022-07-18T12:52:40;98976.66;;;34.29;17.29
49843;BME280;55559;48.898;9.184;2022-07-18T12:55:07;98979.16;;;34.16;17.55
49843;BME280;55559;48.898;9.184;2022-07-18T12:57:35;98982.22;;;34.24;17.74
49843;BME280;55559;48.898;9.184;2022-07-18T13:00:03;98972.53;;;34.06;18.09
49843;BME280;55559;48.898;9.184;2022-07-18T13:02:31;98965.63;;;34.14;17.32
49843;BME280;55559;48.898;9.184;2022-07-18T13:04:59;98966.47;;;34.04;17.55
49843;BME280;55559;48.898;9.184;2022-07-18T13:07:27;98967.00;;;34.17;17.50
49843;BME280;55559;48.898;9.184;2022-07-18T13:09:55;98966.69;;;34.39;17.47
49843;BME280;55559;48.898;9.184;2022-07-18T13:12:22;98963.63;;;34.56;16.71
49843;BME280;55559;48.898;9.184;2022-07-18T13:14:50;98958.66;;;34.53;16.63
49843;BME280;55559;48.898;9.184;2022-07-18T13:17:17;98961.47;;;34.97;17.29
49843;BME280;55559;48.898;9.184;2022-07-18T13:19:45;98966.91;;;34.58;17.26
49843;BME280;55559;48.898;9.184;2022-07-18T13:22:13;98954.53;;;34.45;18.19
49843;BME280;55559;48.898;9.184;2022-07-18T13:24:42;98958.56;;;34.78;17.32
49843;BME280;55559;48.898;9.184;2022-07-18T13:27:09;98953.69;;;34.50;17.56
49843;BME280;55559;48.898;9.184;2022-07-18T13:29:37;98956.91;;;34.72;17.74
49843;BME280;55559;48.898;9.184;2022-07-18T13:32:05;98957.53;;;34.54;17.59
49843;BME280;55559;48.898;9.184;2022-07-18T13:34:32;98956.94;;;34.62;17.88
49843;BME280;55559;48.898;9.184;2022-07-18T13:37:00;98957.81;;;34.47;17.55
49843;BME280;55559;48.898;9.184;2022-07-18T13:39:27;98948.69;;;34.57;17.78
49843;BME280;55559;48.898;9.184;2022-07-18T13:41:56;98942.72;;;34.19;17.58
49843;BME280;55559;48.898;9.184;2022-07-18T13:44:23;98938.38;;;33.87;18.02
49843;BME280;55559;48.898;9.184;2022-07-18T13:46:51;98941.63;;;34.15;17.59
49843;BME280;55559;48.898;9.184;2022-07-18T13:49:18;98944.97;;;33.91;17.70
49843;BME280;55559;48.898;9.184;2022-07-18T13:51:46;98930.34;;;34.06;18.00
49843;BME280;55559;48.898;9.184;2022-07-18T13:54:13;98942.50;;;33.23;18.20
49843;BME280;55559;48.898;9.184;2022-07-18T13:56:42;98937.53;;;33.55;18.13
49843;BME280;55559;48.898;9.184;2022-07-18T13:59:11;98938.94;;;33.79;17.67
49843;BME280;55559;48.898;9.184;2022-07-18T14:01:39;98935.03;;;34.05;17.78
49843;BME280;55559;48.898;9.184;2022-07-18T14:04:07;98934.88;;;34.57;17.67
49843;BME280;55559;48.898;9.184;2022-07-18T14:06:34;98923.97;;;34.16;17.54
49843;BME280;55559;48.898;9.184;2022-07-18T14:09:03;98923.88;;;34.46;17.64
49843;BME280;55559;48.898;9.184;2022-07-18T14:11:30;98921.59;;;34.59;17.09
49843;BME280;55559;48.898;9.184;2022-07-18T14:13:59;98919.56;;;34.85;17.16
49843;BME280;55559;48.898;9.184;2022-07-18T14:16:28;98918.50;;;33.59;18.01
49843;BME280;55559;48.898;9.184;2022-07-18T14:18:56;98917.16;;;33.46;18.48
49843;BME280;55559;48.898;9.184;2022-07-18T14:21:24;98921.22;;;34.16;17.71
49843;BME280;55559;48.898;9.184;2022-07-18T14:23:51;98914.53;;;34.42;17.07
49843;BME280;55559;48.898;9.184;2022-07-18T14:26:20;98917.59;;;34.15;17.39
49843;BME280;55559;48.898;9.184;2022-07-18T14:28:48;98906.59;;;34.20;16.99
49843;BME280;55559;48.898;9.184;2022-07-18T14:31:15;98912.91;;;34.26;17.03
49843;BME280;55559;48.898;9.184;2022-07-18T14:33:44;98905.47;;;34.16;17.43
49843;BME280;55559;48.898;9.184;2022-07-18T14:36:13;98913.34;;;34.54;17.48
49843;BME280;55559;48.898;9.184;2022-07-18T14:38:41;98913.56;;;33.77;17.62
49843;BME280;55559;48.898;9.184;2022-07-18T14:41:09;98916.84;;;34.80;16.90
49843;BME280;55559;48.898;9.184;2022-07-18T14:43:36;98907.00;;;34.53;16.92
49843;BME280;55559;48.898;9.184;2022-07-18T14:46:04;98909.66;;;34.79;16.71
49843;BME280;55559;48.898;9.184;2022-07-18T14:48:31;98907.31;;;35.01;16.30
49843;BME280;55559;48.898;9.184;2022-07-18T14:51:00;98903.34;;;34.68;17.09
49843;BME280;55559;48.898;9.184;2022-07-18T14:53:29;98904.72;;;34.65;17.39
49843;BME280;55559;48.898;9.184;2022-07-18T14:55:56;98904.53;;;35.41;16.42
49843;BME280;55559;48.898;9.184;2022-07-18T14:58:23;98906.53;;;34.91;16.73
49843;BME280;55559;48.898;9.184;2022-07-18T15:00:51;98904.53;;;34.46;17.01
49843;BME280;55559;48.898;9.184;2022-07-18T15:03:18;98890.59;;;35.22;16.08
49843;BME280;55559;48.898;9.184;2022-07-18T15:05:46;98890.38;;;35.13;16.13
49843;BME280;55559;48.898;9.184;2022-07-18T15:08:15;98896.53;;;35.00;16.65
49843;BME280;55559;48.898;9.184;2022-07-18T15:10:42;98898.72;;;35.72;15.92
49843;BME280;55559;48.898;9.184;2022-07-18T15:13:10;98883.44;;;35.50;15.43
49843;BME280;55559;48.898;9.184;2022-07-18T15:15:37;98889.94;;;35.35;15.92
49843;BME280;55559;48.898;9.184;2022-07-18T15:18:05;98897.09;;;34.97;16.47
49843;BME280;55559;48.898;9.184;2022-07-18T15:20:32;98875.66;;;35.18;16.28
49843;BME280;55559;48.898;9.184;2022-07-18T15:23:00;98885.72;;;35.03;16.59
49843;BME280;55559;48.898;9.184;2022-07-18T15:25:28;98884.19;;;34.87;16.63
49843;BME280;55559;48.898;9.184;2022-07-18T15:27:56;98876.53;;;35.13;16.80
49843;BME280;55559;48.898;9.184;2022-07-18T15:30:23;98872.91;;;35.18;17.11
49843;BME280;55559;48.898;9.184;2022-07-18T15:32:51;98873.72;;;35.24;17.16
49843;BME280;55559;48.898;9.184;2022-07-18T15:35:18;98870.81;;;34.99;17.24
49843;BME280;55559;48.898;9.184;2022-07-18T15:37:52;98876.50;;;34.08;17.50
49843;BME280;55559;48.898;9.184;2022-07-18T15:40:20;98871.34;;;35.07;17.38